createdAt,value
2019-02-17T00:01:25.360Z,18.17
2019-02-17T00:03:53.890Z,16.90
2019-02-17T00:06:22.710Z,16.10
2019-02-17T00:08:51.235Z,17.10
2019-02-17T00:11:19.766Z,18.63
2019-02-17T00:13:48.208Z,18.20
2019-02-17T00:16:16.640Z,16.10
2019-02-17T00:18:45.110Z,16.17
2019-02-17T00:21:13.639Z,18.00
2019-02-17T00:23:42.363Z,16.80
2019-02-17T00:26:10.892Z,18.03
2019-02-17T00:28:39.323Z,17.23
2019-02-17T00:31:07.760Z,16.60
2019-02-17T00:33:36.222Z,18.20
2019-02-17T00:36:04.657Z,17.13
2019-02-17T00:38:33.093Z,18.23
2019-02-17T00:41:01.566Z,19.50
2019-02-17T00:43:30.028Z,20.20
2019-02-17T00:45:58.814Z,18.13
2019-02-17T00:48:27.585Z,18.17
2019-02-17T00:50:56.373Z,17.60
2019-02-17T00:53:24.809Z,19.27
2019-02-17T00:55:53.357Z,18.87
2019-02-17T00:58:21.793Z,18.60
2019-02-17T01:00:50.534Z,17.87
2019-02-17T01:03:19.000Z,16.93
2019-02-17T01:05:47.798Z,17.40
2019-02-17T01:08:16.238Z,18.40
2019-02-17T01:10:44.707Z,17.13
2019-02-17T01:13:13.138Z,16.20
2019-02-17T01:15:41.908Z,16.77
2019-02-17T01:18:10.384Z,17.90
2019-02-17T01:20:39.178Z,17.30
2019-02-17T01:23:07.615Z,17.00
2019-02-17T01:25:36.248Z,15.87
2019-02-17T01:28:04.824Z,15.13
2019-02-17T01:30:33.257Z,15.37
2019-02-17T01:33:01.733Z,14.80
2019-02-17T01:35:30.153Z,13.90
2019-02-17T01:37:58.789Z,15.07
2019-02-17T01:40:27.241Z,14.93
2019-02-17T01:42:55.677Z,15.77
2019-02-17T01:45:24.182Z,14.47
2019-02-17T01:47:52.834Z,13.67
2019-02-17T01:50:21.270Z,14.93
2019-02-17T01:52:50.070Z,14.90
2019-02-17T01:55:18.538Z,15.07
2019-02-17T01:57:47.073Z,17.00
2019-02-17T02:00:16.448Z,17.60
2019-02-17T02:02:44.930Z,14.73
2019-02-17T02:05:13.446Z,15.13
2019-02-17T02:07:41.982Z,14.87
2019-02-17T02:10:10.726Z,15.80
2019-02-17T02:12:39.231Z,16.73
2019-02-17T02:15:10.410Z,17.97
2019-02-17T02:17:38.951Z,17.80
2019-02-17T02:20:12.987Z,16.83
2019-02-17T02:22:41.699Z,18.20
2019-02-17T02:25:10.697Z,18.63
2019-02-17T02:27:39.133Z,17.23
2019-02-17T02:30:10.809Z,18.07
2019-02-17T02:32:39.382Z,17.63
2019-02-17T02:35:07.955Z,16.17
2019-02-17T02:37:36.457Z,17.93
2019-02-17T02:40:05.984Z,15.77
2019-02-17T02:42:34.441Z,19.40
2019-02-17T02:45:03.040Z,16.90
2019-02-17T02:47:31.513Z,18.67
2019-02-17T02:49:59.945Z,17.03
2019-02-17T02:52:28.385Z,17.57
2019-02-17T02:54:56.940Z,17.23
2019-02-17T02:57:25.373Z,16.87
2019-02-17T02:59:53.808Z,18.40
2019-02-17T03:02:22.574Z,18.50
2019-02-17T03:04:51.006Z,17.63
2019-02-17T03:07:19.510Z,17.00
2019-02-17T03:09:47.970Z,16.10
2019-02-17T03:12:16.408Z,17.13
2019-02-17T03:14:44.848Z,16.97
2019-02-17T03:17:13.309Z,17.90
2019-02-17T03:19:41.743Z,17.20
2019-02-17T03:22:10.180Z,15.47
2019-02-17T03:24:39.007Z,16.90
2019-02-17T03:27:07.441Z,16.10
2019-02-17T03:29:35.882Z,15.90
2019-02-17T03:32:04.369Z,17.27
2019-02-17T03:34:32.795Z,16.70
2019-02-17T03:37:01.232Z,16.67
2019-02-17T03:39:30.097Z,16.03
2019-02-17T03:41:58.705Z,14.13
2019-02-17T03:44:27.213Z,14.47
2019-02-17T03:46:55.949Z,15.60
2019-02-17T03:49:24.485Z,13.90
2019-02-17T03:51:52.931Z,15.13
2019-02-17T03:54:21.393Z,15.13
2019-02-17T03:56:49.839Z,14.70
2019-02-17T03:59:18.273Z,15.10
2019-02-17T04:01:46.994Z,13.70
2019-02-17T04:04:15.428Z,11.77
2019-02-17T04:07:03.237Z,13.60
2019-02-17T04:09:50.856Z,14.07
2019-02-17T04:12:19.497Z,14.23
2019-02-17T04:14:47.935Z,14.30
2019-02-17T04:17:16.718Z,13.30
2019-02-17T04:20:04.506Z,13.17
2019-02-17T04:22:32.943Z,13.57
2019-02-17T04:25:01.379Z,13.67
2019-02-17T04:27:29.842Z,13.10
2019-02-17T04:29:58.370Z,14.13
2019-02-17T04:32:26.802Z,14.20
2019-02-17T04:34:55.262Z,15.57
2019-02-17T04:37:23.795Z,16.10
2019-02-17T04:39:52.227Z,16.10
2019-02-17T04:42:20.711Z,17.07
2019-02-17T04:44:49.163Z,14.77
2019-02-17T04:47:17.718Z,14.90
2019-02-17T04:49:46.184Z,18.40
2019-02-17T04:52:14.617Z,16.40
2019-02-17T04:54:43.052Z,20.87
2019-02-17T04:57:11.521Z,17.70
2019-02-17T04:59:39.953Z,18.47
2019-02-17T05:02:08.545Z,16.40
2019-02-17T05:04:37.318Z,16.93
2019-02-17T05:07:05.767Z,18.10
2019-02-17T05:09:34.198Z,18.57
2019-02-17T05:12:02.754Z,19.67
2019-02-17T05:14:31.346Z,23.67
2019-02-17T05:16:59.864Z,22.30
2019-02-17T05:19:28.341Z,23.90
2019-02-17T05:21:56.779Z,24.90
2019-02-17T05:24:25.218Z,25.30
2019-02-17T05:26:53.701Z,28.70
2019-02-17T05:29:22.142Z,25.00
2019-02-17T05:31:50.924Z,32.30
2019-02-17T05:34:19.659Z,27.17
2019-02-17T05:36:48.104Z,30.00
2019-02-17T05:39:16.622Z,30.07
2019-02-17T05:41:45.105Z,27.33
2019-02-17T05:44:13.582Z,29.07
2019-02-17T05:46:42.455Z,29.97
2019-02-17T05:49:11.160Z,30.87
2019-02-17T05:51:39.600Z,25.73
2019-02-17T05:54:08.380Z,25.30
2019-02-17T05:56:36.867Z,28.40
2019-02-17T05:59:05.397Z,29.93
2019-02-17T06:01:33.835Z,27.00
2019-02-17T06:04:02.303Z,25.30
2019-02-17T06:06:30.751Z,26.07
2019-02-17T06:08:59.199Z,26.20
2019-02-17T06:11:28.265Z,26.43
2019-02-17T06:13:56.708Z,27.80
2019-02-17T06:16:25.428Z,28.73
2019-02-17T06:18:53.913Z,25.63
2019-02-17T06:21:22.694Z,24.73
2019-02-17T06:23:51.156Z,24.60
2019-02-17T06:26:20.559Z,26.30
2019-02-17T06:28:49.087Z,20.40
2019-02-17T06:31:17.533Z,21.87
2019-02-17T06:33:46.335Z,22.80
2019-02-17T06:36:14.873Z,21.63
2019-02-17T06:38:43.706Z,22.10
2019-02-17T06:41:12.183Z,25.90
2019-02-17T06:43:40.639Z,23.30
2019-02-17T06:46:10.808Z,20.50
2019-02-17T06:48:39.278Z,19.93
2019-02-17T06:51:07.793Z,22.07
2019-02-17T06:53:36.232Z,22.03
2019-02-17T06:56:08.987Z,23.67
2019-02-17T06:58:36.880Z,22.63
2019-02-17T07:01:05.326Z,25.00
2019-02-17T07:03:33.792Z,23.90
2019-02-17T07:06:03.917Z,24.07
2019-02-17T07:08:33.264Z,22.47
2019-02-17T07:11:01.732Z,25.80
2019-02-17T07:13:30.166Z,24.13
2019-02-17T07:15:58.622Z,22.40
2019-02-17T07:18:27.072Z,23.57
2019-02-17T07:20:55.534Z,22.97
2019-02-17T07:23:23.983Z,25.17
2019-02-17T07:25:52.460Z,21.60
2019-02-17T07:28:20.902Z,21.57
2019-02-17T07:30:49.367Z,22.63
2019-02-17T07:33:17.855Z,25.20
2019-02-17T07:35:46.288Z,21.40
2019-02-17T07:38:14.739Z,22.70
2019-02-17T07:40:43.208Z,23.20
2019-02-17T07:43:11.998Z,24.10
2019-02-17T07:45:40.435Z,26.53
2019-02-17T07:48:08.915Z,25.70
2019-02-17T07:50:37.349Z,24.87
2019-02-17T07:53:06.127Z,23.57
2019-02-17T07:55:35.816Z,22.07
2019-02-17T07:58:04.252Z,21.57
2019-02-17T08:00:32.691Z,22.83
2019-02-17T08:03:01.167Z,22.57
2019-02-17T08:05:29.697Z,21.33
2019-02-17T08:07:58.457Z,21.23
2019-02-17T08:10:26.961Z,19.40
2019-02-17T08:12:55.517Z,20.33
2019-02-17T08:15:23.959Z,21.20
2019-02-17T08:17:52.418Z,20.67
2019-02-17T08:20:20.862Z,21.03
2019-02-17T08:22:49.299Z,22.93
2019-02-17T08:25:21.801Z,22.37
2019-02-17T08:27:47.940Z,23.00
2019-02-17T08:30:16.541Z,21.30
2019-02-17T08:32:45.126Z,23.27
2019-02-17T08:35:13.625Z,21.83
2019-02-17T08:37:42.107Z,22.20
2019-02-17T08:40:11.361Z,23.37
2019-02-17T08:42:39.879Z,20.70
2019-02-17T08:45:11.609Z,22.40
2019-02-17T08:47:40.190Z,22.23
2019-02-17T08:50:11.175Z,21.80
2019-02-17T08:52:39.694Z,21.23
2019-02-17T08:55:10.313Z,21.50
2019-02-17T08:57:38.821Z,21.87
2019-02-17T09:00:13.441Z,20.10
2019-02-17T09:02:41.979Z,21.60
2019-02-17T09:05:10.544Z,21.97
2019-02-17T09:07:39.057Z,21.07
2019-02-17T09:10:12.882Z,20.53
2019-02-17T09:12:41.316Z,20.03
2019-02-17T09:15:11.794Z,21.50
2019-02-17T09:17:40.282Z,20.27
2019-02-17T09:20:10.662Z,22.80
2019-02-17T09:22:39.094Z,19.80
2019-02-17T09:25:10.110Z,19.80
2019-02-17T09:27:38.606Z,25.43
2019-02-17T09:30:13.028Z,28.80
2019-02-17T09:32:41.497Z,23.50
2019-02-17T09:35:09.996Z,22.30
2019-02-17T09:37:38.452Z,22.47
2019-02-17T09:40:10.632Z,20.60
2019-02-17T09:42:39.446Z,21.47
2019-02-17T09:45:11.576Z,19.80
2019-02-17T09:47:40.034Z,19.30
2019-02-17T09:50:11.504Z,20.10
2019-02-17T09:52:40.084Z,20.63
2019-02-17T09:55:10.500Z,22.37
2019-02-17T09:57:39.757Z,19.87
2019-02-17T10:00:11.200Z,21.00
2019-02-17T10:02:39.733Z,20.60
2019-02-17T10:05:10.197Z,19.30
2019-02-17T10:07:38.804Z,20.97
2019-02-17T10:10:15.819Z,20.30
2019-02-17T10:12:44.664Z,21.50
2019-02-17T10:15:14.032Z,22.47
2019-02-17T10:17:42.917Z,21.17
2019-02-17T10:20:13.930Z,21.73
2019-02-17T10:22:42.352Z,22.13
2019-02-17T10:25:11.344Z,23.50
2019-02-17T10:27:39.774Z,22.20
2019-02-17T10:30:16.450Z,20.70
2019-02-17T10:32:44.945Z,19.37
2019-02-17T10:35:13.548Z,20.63
2019-02-17T10:37:42.029Z,19.13
2019-02-17T10:40:15.617Z,20.60
2019-02-17T10:42:44.373Z,20.87
2019-02-17T10:45:13.696Z,19.80
2019-02-17T10:47:42.124Z,20.90
2019-02-17T10:50:12.294Z,19.07
2019-02-17T10:52:40.754Z,20.23
2019-02-17T10:55:11.574Z,21.33
2019-02-17T10:57:40.268Z,20.40
2019-02-17T11:00:14.848Z,21.53
2019-02-17T11:02:46.946Z,21.23
2019-02-17T11:05:13.905Z,20.70
2019-02-17T11:07:42.745Z,21.20
2019-02-17T11:10:13.181Z,20.27
2019-02-17T11:12:41.681Z,20.10
2019-02-17T11:15:16.276Z,20.93
2019-02-17T11:17:44.705Z,21.30
2019-02-17T11:20:13.369Z,20.67
2019-02-17T11:22:41.904Z,20.17
2019-02-17T11:25:10.870Z,20.50
2019-02-17T11:27:39.306Z,21.20
2019-02-17T11:30:11.177Z,19.80
2019-02-17T11:32:39.604Z,20.40
2019-02-17T11:35:08.471Z,20.37
2019-02-17T11:37:37.048Z,19.43
2019-02-17T11:40:08.621Z,21.70
2019-02-17T11:42:37.051Z,20.00
2019-02-17T11:45:19.885Z,21.00
2019-02-17T11:47:48.552Z,19.27
2019-02-17T11:50:16.980Z,20.90
2019-02-17T11:52:45.438Z,19.97
2019-02-17T11:55:15.408Z,21.60
2019-02-17T11:57:43.909Z,19.87
2019-02-17T12:00:18.745Z,20.70
2019-02-17T12:02:47.177Z,20.33
2019-02-17T12:05:15.676Z,20.40
2019-02-17T12:07:44.272Z,21.27
2019-02-17T12:10:13.045Z,20.90
2019-02-17T12:12:41.812Z,22.07
2019-02-17T12:15:12.853Z,22.10
2019-02-17T12:17:41.366Z,21.13
2019-02-17T12:20:33.019Z,21.83
2019-02-17T12:23:03.085Z,19.93
2019-02-17T12:25:33.257Z,21.70
2019-02-17T12:28:06.201Z,22.10
2019-02-17T12:30:34.971Z,21.60
2019-02-17T12:33:03.409Z,23.10
2019-02-17T12:35:31.894Z,20.80
2019-02-17T12:38:00.370Z,21.73
2019-02-17T12:40:28.829Z,20.90
2019-02-17T12:42:57.665Z,21.00
2019-02-17T12:45:26.208Z,21.83
2019-02-17T12:47:58.210Z,21.83
2019-02-17T12:50:24.928Z,21.50
2019-02-17T12:52:53.462Z,23.93
2019-02-17T12:55:21.893Z,21.50
2019-02-17T12:57:50.487Z,23.20
2019-02-17T13:00:19.058Z,20.53
2019-02-17T13:02:47.498Z,22.23
2019-02-17T13:05:16.063Z,22.87
2019-02-17T13:07:44.855Z,22.87
2019-02-17T13:10:13.575Z,22.63
2019-02-17T13:12:42.052Z,21.20
2019-02-17T13:15:12.229Z,22.30
2019-02-17T13:17:40.661Z,22.03
2019-02-17T13:20:11.980Z,23.13
2019-02-17T13:22:40.481Z,21.80
2019-02-17T13:25:11.889Z,22.60
2019-02-17T13:27:41.201Z,22.57
2019-02-17T13:30:21.431Z,22.50
2019-02-17T13:32:50.059Z,22.47
2019-02-17T13:35:20.596Z,23.77
2019-02-17T13:37:49.026Z,20.47
2019-02-17T13:40:17.564Z,21.40
2019-02-17T13:42:46.105Z,22.70
2019-02-17T13:45:17.074Z,21.77
2019-02-17T13:47:45.590Z,23.73
2019-02-17T13:50:16.040Z,22.20
2019-02-17T13:52:44.759Z,20.67
2019-02-17T13:55:13.747Z,21.13
2019-02-17T13:57:42.189Z,21.63
2019-02-17T14:00:19.148Z,21.87
2019-02-17T14:02:48.621Z,21.27
2019-02-17T14:05:17.135Z,21.60
2019-02-17T14:07:45.700Z,21.70
2019-02-17T14:10:14.687Z,21.90
2019-02-17T14:12:43.297Z,20.63
2019-02-17T14:15:19.772Z,20.63
2019-02-17T14:17:48.193Z,21.73
2019-02-17T14:20:16.699Z,21.63
2019-02-17T14:22:45.631Z,20.90
2019-02-17T14:25:14.433Z,20.40
2019-02-17T14:27:42.866Z,19.60
2019-02-17T14:30:14.009Z,18.27
2019-02-17T14:32:42.787Z,17.80
2019-02-17T14:35:11.364Z,21.90
2019-02-17T14:37:40.879Z,20.73
2019-02-17T14:40:11.442Z,20.17
2019-02-17T14:42:39.878Z,19.97
2019-02-17T14:45:13.024Z,20.70
2019-02-17T14:47:41.756Z,20.50
2019-02-17T14:50:10.741Z,22.30
2019-02-17T14:52:39.212Z,20.03
2019-02-17T14:55:09.490Z,18.90
2019-02-17T14:57:38.250Z,20.90
2019-02-17T15:00:12.478Z,20.93
2019-02-17T15:02:40.931Z,20.10
2019-02-17T15:05:10.529Z,21.27
2019-02-17T15:07:38.983Z,21.73
2019-02-17T15:10:11.827Z,21.07
2019-02-17T15:12:40.446Z,22.67
2019-02-17T15:15:14.403Z,22.77
2019-02-17T15:17:42.838Z,23.23
2019-02-17T15:20:16.221Z,21.97
2019-02-17T15:22:45.086Z,22.20
2019-02-17T15:25:13.620Z,23.07
2019-02-17T15:27:42.150Z,24.47
2019-02-17T15:30:17.639Z,22.80
2019-02-17T15:32:45.549Z,21.43
2019-02-17T15:35:14.190Z,21.70
2019-02-17T15:37:43.624Z,22.90
2019-02-17T15:40:14.345Z,20.87
2019-02-17T15:42:43.471Z,21.87
2019-02-17T15:45:13.742Z,23.87
2019-02-17T15:47:43.154Z,23.03
2019-02-17T15:50:14.135Z,22.30
2019-02-17T15:52:42.963Z,22.57
2019-02-17T15:55:13.601Z,22.37
2019-02-17T15:57:42.346Z,22.50
2019-02-17T16:00:15.729Z,23.40
2019-02-17T16:02:44.381Z,22.47
2019-02-17T16:05:12.952Z,22.10
2019-02-17T16:07:41.498Z,22.63
2019-02-17T16:10:15.017Z,24.27
2019-02-17T16:12:43.461Z,24.20
2019-02-17T16:15:17.370Z,27.47
2019-02-17T16:17:45.805Z,25.87
2019-02-17T16:20:15.163Z,25.23
2019-02-17T16:22:43.796Z,28.10
2019-02-17T16:25:12.950Z,24.00
2019-02-17T16:27:41.393Z,23.97
2019-02-17T16:30:49.775Z,24.73
2019-02-17T16:33:18.211Z,23.50
2019-02-17T16:35:46.651Z,25.27
2019-02-17T16:38:15.111Z,27.10
2019-02-17T16:40:43.540Z,25.60
2019-02-17T16:43:12.303Z,26.23
2019-02-17T16:45:40.860Z,24.10
2019-02-17T16:48:09.576Z,23.83
2019-02-17T16:50:38.009Z,23.90
2019-02-17T16:53:25.670Z,23.90
2019-02-17T16:55:54.096Z,26.40
2019-02-17T16:58:22.525Z,21.37
2019-02-17T17:01:32.716Z,22.00
2019-02-17T17:04:20.385Z,24.60
2019-02-17T17:06:48.974Z,23.20
2019-02-17T17:09:17.703Z,21.80
2019-02-17T17:12:05.980Z,21.70
2019-02-17T17:14:34.414Z,21.53
2019-02-17T17:17:22.178Z,23.07
2019-02-17T17:19:50.952Z,21.20
2019-02-17T17:22:21.533Z,21.70
2019-02-17T17:27:23.992Z,20.13
2019-02-17T17:30:11.808Z,19.67
2019-02-17T17:32:59.804Z,20.13
2019-02-17T17:35:28.322Z,18.73
2019-02-17T17:38:16.042Z,16.37
2019-02-17T17:40:44.538Z,18.03
2019-02-17T17:43:32.342Z,17.57
2019-02-17T17:48:54.556Z,16.67
2019-02-17T17:51:42.385Z,18.37
2019-02-17T17:54:30.526Z,17.13
2019-02-17T18:00:12.438Z,18.27
2019-02-17T18:03:00.196Z,17.73
2019-02-17T18:05:48.147Z,17.27
2019-02-17T18:11:29.675Z,18.20
2019-02-17T18:14:17.504Z,18.90
2019-02-17T18:16:57.785Z,19.30
2019-02-17T18:22:39.319Z,22.03
2019-02-17T18:25:48.013Z,24.50
2019-02-17T18:28:17.937Z,22.20
2019-02-17T18:31:05.875Z,23.10
2019-02-17T18:33:53.692Z,21.73
2019-02-17T18:42:10.305Z,23.40
2019-02-17T18:44:58.327Z,22.23
2019-02-17T18:48:06.722Z,22.67
2019-02-17T18:50:59.211Z,22.40
2019-02-17T18:56:51.023Z,20.20
2019-02-17T18:59:59.528Z,20.67
2019-02-17T19:02:47.388Z,19.13
2019-02-17T19:05:35.141Z,19.60
2019-02-17T19:08:23.381Z,18.60
2019-02-17T19:11:11.509Z,19.70
2019-02-17T19:13:59.756Z,16.53
2019-02-17T19:16:47.731Z,17.40
2019-02-17T19:19:35.425Z,18.43
2019-02-17T19:22:23.099Z,17.90
2019-02-17T19:25:11.131Z,18.60
2019-02-17T19:27:58.809Z,15.37
2019-02-17T19:30:27.824Z,15.80
2019-02-17T19:33:15.923Z,17.70
2019-02-17T19:36:04.111Z,16.00
2019-02-17T19:38:32.709Z,16.87
2019-02-17T19:41:20.861Z,16.03
2019-02-17T19:44:08.674Z,18.27
2019-02-17T19:50:11.913Z,22.77
2019-02-17T19:53:00.152Z,17.97
2019-02-17T19:55:48.507Z,17.87
2019-02-17T19:58:36.298Z,15.80
2019-02-17T20:04:36.941Z,17.30
2019-02-17T20:10:18.001Z,17.43
2019-02-17T20:12:47.422Z,17.17
2019-02-17T20:18:44.016Z,17.80
2019-02-17T20:21:31.679Z,18.80
2019-02-17T20:24:41.051Z,19.17
2019-02-17T20:27:09.533Z,20.20
2019-02-17T20:29:38.088Z,17.40
2019-02-17T20:34:59.901Z,16.70
2019-02-17T20:37:47.667Z,18.40
2019-02-17T20:40:56.062Z,18.27
2019-02-17T20:43:43.955Z,17.97
2019-02-17T20:46:12.902Z,17.33
2019-02-17T20:48:41.822Z,17.43
2019-02-17T20:51:12.227Z,16.90
2019-02-17T20:53:41.024Z,17.30
2019-02-17T20:56:09.663Z,17.63
2019-02-17T20:58:40.288Z,17.30
2019-02-17T21:01:09.845Z,18.23
2019-02-17T21:03:38.408Z,16.87
2019-02-17T21:06:12.923Z,18.57
2019-02-17T21:08:56.807Z,18.57
2019-02-17T21:11:25.430Z,16.43
2019-02-17T21:14:13.141Z,16.77
2019-02-17T21:19:55.668Z,18.73
2019-02-17T21:23:04.334Z,16.97
2019-02-17T21:25:52.046Z,17.37
2019-02-17T21:28:20.825Z,17.20
2019-02-17T21:31:08.465Z,18.57
2019-02-17T21:33:56.322Z,18.20
2019-02-17T21:36:24.785Z,18.17
2019-02-17T21:38:53.236Z,18.20
2019-02-17T21:44:16.781Z,18.77
2019-02-17T21:46:46.681Z,19.93
2019-02-17T21:49:15.113Z,18.30
2019-02-17T21:51:43.670Z,20.27
2019-02-17T21:54:12.096Z,18.67
2019-02-17T21:56:40.529Z,19.67
2019-02-17T21:59:08.996Z,20.33
2019-02-17T22:01:37.745Z,20.67
2019-02-17T22:04:06.176Z,22.50
2019-02-17T22:06:34.725Z,22.10
2019-02-17T22:11:52.265Z,20.40
2019-02-17T22:14:20.706Z,18.50
2019-02-17T22:16:49.420Z,17.93
2019-02-17T22:19:17.878Z,18.57
2019-02-17T22:21:46.310Z,18.43
2019-02-17T22:24:14.834Z,16.60
2019-02-17T22:26:43.293Z,17.60
2019-02-17T22:29:12.852Z,18.93
2019-02-17T22:32:01.322Z,17.77
2019-02-17T22:34:30.089Z,18.57
2019-02-17T22:36:58.525Z,17.77
2019-02-17T22:39:27.261Z,17.10
2019-02-17T22:41:56.045Z,18.47
2019-02-17T22:44:24.834Z,16.27
2019-02-17T22:47:12.715Z,18.53
2019-02-17T22:49:41.126Z,18.87
2019-02-17T23:01:10.689Z,16.57
2019-02-17T23:03:58.665Z,18.07
2019-02-17T23:06:53.787Z,17.90
2019-02-17T23:09:35.970Z,19.93
2019-02-17T23:12:04.475Z,18.27
2019-02-17T23:14:32.911Z,18.00
2019-02-17T23:19:35.042Z,18.53
2019-02-17T23:22:03.481Z,17.93
2019-02-17T23:24:32.029Z,19.87
2019-02-17T23:27:19.807Z,18.40
2019-02-17T23:29:48.377Z,18.00
2019-02-17T23:32:16.840Z,18.17
2019-02-17T23:34:45.365Z,17.20
2019-02-17T23:37:13.835Z,17.13
2019-02-17T23:39:42.269Z,17.03
2019-02-17T23:42:10.798Z,17.20
2019-02-17T23:44:39.258Z,17.10
2019-02-17T23:47:07.690Z,17.40
2019-02-17T23:49:36.121Z,16.10
2019-02-17T23:52:24.053Z,17.13
2019-02-17T23:54:52.791Z,16.57
2019-02-17T23:57:21.233Z,15.53
2019-02-17T23:59:50.267Z,14.80
